sensor_id;sensor_type;location;lat;lon;timestamp;P1;durP1;ratioP1;P2;durP2;ratioP2
76039;SDS011;64736;50.462;4.850;2023-01-19T00:00:57;8.02;;;4.45;;
76039;SDS011;64736;50.462;4.850;2023-01-19T00:03:23;11.00;;;6.07;;
76039;SDS011;64736;50.462;4.850;2023-01-19T00:05:48;11.45;;;5.90;;
76039;SDS011;64736;50.462;4.850;2023-01-19T00:08:14;8.05;;;4.22;;
76039;SDS011;64736;50.462;4.850;2023-01-19T00:10:41;5.97;;;3.50;;
76039;SDS011;64736;50.462;4.850;2023-01-19T00:13:08;9.55;;;4.90;;
76039;SDS011;64736;50.462;4.850;2023-01-19T00:15:34;9.73;;;5.90;;
76039;SDS011;64736;50.462;4.850;2023-01-19T00:18:00;9.65;;;4.75;;
76039;SDS011;64736;50.462;4.850;2023-01-19T00:20:26;11.63;;;6.05;;
76039;SDS011;64736;50.462;4.850;2023-01-19T00:22:51;11.60;;;6.30;;
76039;SDS011;64736;50.462;4.850;2023-01-19T00:25:17;10.40;;;5.85;;
76039;SDS011;64736;50.462;4.850;2023-01-19T00:27:43;8.30;;;4.47;;
76039;SDS011;64736;50.462;4.850;2023-01-19T00:30:17;12.38;;;5.18;;
76039;SDS011;64736;50.462;4.850;2023-01-19T00:32:42;8.90;;;4.93;;
76039;SDS011;64736;50.462;4.850;2023-01-19T00:35:08;7.13;;;4.32;;
76039;SDS011;64736;50.462;4.850;2023-01-19T00:37:34;11.23;;;5.30;;
76039;SDS011;64736;50.462;4.850;2023-01-19T00:40:00;13.20;;;5.68;;
76039;SDS011;64736;50.462;4.850;2023-01-19T00:42:25;8.77;;;5.03;;
76039;SDS011;64736;50.462;4.850;2023-01-19T00:45:12;10.90;;;6.40;;
76039;SDS011;64736;50.462;4.850;2023-01-19T00:47:38;10.27;;;5.22;;
76039;SDS011;64736;50.462;4.850;2023-01-19T00:50:05;10.52;;;4.78;;
76039;SDS011;64736;50.462;4.850;2023-01-19T00:52:38;12.63;;;6.60;;
76039;SDS011;64736;50.462;4.850;2023-01-19T00:55:06;12.60;;;7.75;;
76039;SDS011;64736;50.462;4.850;2023-01-19T00:57:32;14.13;;;7.47;;
76039;SDS011;64736;50.462;4.850;2023-01-19T00:59:58;13.82;;;7.20;;
76039;SDS011;64736;50.462;4.850;2023-01-19T01:02:24;11.73;;;6.22;;
76039;SDS011;64736;50.462;4.850;2023-01-19T01:04:50;10.98;;;6.18;;
76039;SDS011;64736;50.462;4.850;2023-01-19T01:07:27;13.43;;;5.93;;
76039;SDS011;64736;50.462;4.850;2023-01-19T01:09:53;12.27;;;6.97;;
76039;SDS011;64736;50.462;4.850;2023-01-19T01:12:18;14.30;;;7.25;;
76039;SDS011;64736;50.462;4.850;2023-01-19T01:14:44;12.85;;;7.35;;
76039;SDS011;64736;50.462;4.850;2023-01-19T01:17:10;14.05;;;6.65;;
76039;SDS011;64736;50.462;4.850;2023-01-19T01:19:41;13.75;;;6.60;;
76039;SDS011;64736;50.462;4.850;2023-01-19T01:22:07;12.38;;;5.90;;
76039;SDS011;64736;50.462;4.850;2023-01-19T01:24:34;11.80;;;5.90;;
76039;SDS011;64736;50.462;4.850;2023-01-19T01:27:00;12.52;;;6.38;;
76039;SDS011;64736;50.462;4.850;2023-01-19T01:29:26;11.52;;;6.70;;
76039;SDS011;64736;50.462;4.850;2023-01-19T01:31:51;13.30;;;6.70;;
76039;SDS011;64736;50.462;4.850;2023-01-19T01:34:17;14.00;;;7.20;;
76039;SDS011;64736;50.462;4.850;2023-01-19T01:36:43;13.25;;;7.15;;
76039;SDS011;64736;50.462;4.850;2023-01-19T01:39:09;14.75;;;7.22;;
76039;SDS011;64736;50.462;4.850;2023-01-19T01:41:34;14.00;;;7.10;;
76039;SDS011;64736;50.462;4.850;2023-01-19T01:44:01;10.25;;;5.47;;
76039;SDS011;64736;50.462;4.850;2023-01-19T01:46:31;13.07;;;6.43;;
76039;SDS011;64736;50.462;4.850;2023-01-19T01:49:09;14.40;;;6.40;;
76039;SDS011;64736;50.462;4.850;2023-01-19T01:51:41;12.45;;;6.50;;
76039;SDS011;64736;50.462;4.850;2023-01-19T01:54:27;10.13;;;5.55;;
76039;SDS011;64736;50.462;4.850;2023-01-19T01:56:58;14.18;;;6.97;;
76039;SDS011;64736;50.462;4.850;2023-01-19T01:59:31;10.65;;;5.40;;
76039;SDS011;64736;50.462;4.850;2023-01-19T02:02:04;11.55;;;6.63;;
76039;SDS011;64736;50.462;4.850;2023-01-19T02:05:00;12.23;;;5.70;;
76039;SDS011;64736;50.462;4.850;2023-01-19T02:07:42;7.20;;;4.28;;
76039;SDS011;64736;50.462;4.850;2023-01-19T02:10:30;12.18;;;5.38;;
76039;SDS011;64736;50.462;4.850;2023-01-19T02:13:15;10.90;;;5.80;;
76039;SDS011;64736;50.462;4.850;2023-01-19T02:15:43;11.32;;;5.85;;
76039;SDS011;64736;50.462;4.850;2023-01-19T02:18:09;8.25;;;4.55;;
76039;SDS011;64736;50.462;4.850;2023-01-19T02:20:35;12.60;;;6.70;;
76039;SDS011;64736;50.462;4.850;2023-01-19T02:23:04;12.25;;;5.28;;
76039;SDS011;64736;50.462;4.850;2023-01-19T02:25:37;10.90;;;6.63;;
76039;SDS011;64736;50.462;4.850;2023-01-19T02:28:04;11.32;;;5.88;;
76039;SDS011;64736;50.462;4.850;2023-01-19T02:30:31;13.38;;;6.93;;
76039;SDS011;64736;50.462;4.850;2023-01-19T02:32:57;15.35;;;6.32;;
76039;SDS011;64736;50.462;4.850;2023-01-19T02:35:23;14.07;;;6.25;;
76039;SDS011;64736;50.462;4.850;2023-01-19T02:37:49;13.57;;;6.20;;
76039;SDS011;64736;50.462;4.850;2023-01-19T02:40:16;12.68;;;6.07;;
76039;SDS011;64736;50.462;4.850;2023-01-19T02:42:47;16.58;;;7.28;;
76039;SDS011;64736;50.462;4.850;2023-01-19T02:45:16;12.27;;;6.75;;
76039;SDS011;64736;50.462;4.850;2023-01-19T02:47:46;15.55;;;7.40;;
76039;SDS011;64736;50.462;4.850;2023-01-19T02:50:33;14.10;;;7.30;;
76039;SDS011;64736;50.462;4.850;2023-01-19T02:53:09;13.00;;;6.20;;
76039;SDS011;64736;50.462;4.850;2023-01-19T02:56:46;11.65;;;5.07;;
76039;SDS011;64736;50.462;4.850;2023-01-19T03:02:03;14.77;;;6.35;;
76039;SDS011;64736;50.462;4.850;2023-01-19T03:05:25;12.65;;;5.93;;
76039;SDS011;64736;50.462;4.850;2023-01-19T03:17:44;11.90;;;6.35;;
76039;SDS011;64736;50.462;4.850;2023-01-19T03:20:13;18.23;;;8.47;;
76039;SDS011;64736;50.462;4.850;2023-01-19T03:22:44;16.58;;;7.88;;
76039;SDS011;64736;50.462;4.850;2023-01-19T03:25:13;13.38;;;6.22;;
76039;SDS011;64736;50.462;4.850;2023-01-19T03:27:40;13.85;;;6.55;;
76039;SDS011;64736;50.462;4.850;2023-01-19T03:30:12;13.13;;;7.00;;
76039;SDS011;64736;50.462;4.850;2023-01-19T03:32:50;15.38;;;8.57;;
76039;SDS011;64736;50.462;4.850;2023-01-19T03:35:20;13.80;;;6.60;;
76039;SDS011;64736;50.462;4.850;2023-01-19T03:37:49;9.18;;;5.07;;
76039;SDS011;64736;50.462;4.850;2023-01-19T03:42:44;11.75;;;6.65;;
76039;SDS011;64736;50.462;4.850;2023-01-19T03:45:11;9.23;;;4.30;;
76039;SDS011;64736;50.462;4.850;2023-01-19T03:47:38;9.25;;;5.47;;
76039;SDS011;64736;50.462;4.850;2023-01-19T03:50:05;12.60;;;6.53;;
76039;SDS011;64736;50.462;4.850;2023-01-19T03:52:36;12.13;;;6.78;;
76039;SDS011;64736;50.462;4.850;2023-01-19T03:55:02;15.98;;;8.10;;
76039;SDS011;64736;50.462;4.850;2023-01-19T03:57:30;13.73;;;6.63;;
76039;SDS011;64736;50.462;4.850;2023-01-19T03:59:56;17.17;;;6.38;;
76039;SDS011;64736;50.462;4.850;2023-01-19T04:02:22;14.60;;;7.78;;
76039;SDS011;64736;50.462;4.850;2023-01-19T04:04:48;14.45;;;6.97;;
76039;SDS011;64736;50.462;4.850;2023-01-19T04:07:14;12.95;;;7.10;;
76039;SDS011;64736;50.462;4.850;2023-01-19T04:09:40;13.60;;;6.78;;
76039;SDS011;64736;50.462;4.850;2023-01-19T04:12:06;18.52;;;7.88;;
76039;SDS011;64736;50.462;4.850;2023-01-19T04:14:32;13.20;;;7.00;;
76039;SDS011;64736;50.462;4.850;2023-01-19T04:16:57;15.15;;;7.88;;
76039;SDS011;64736;50.462;4.850;2023-01-19T04:19:23;13.23;;;7.53;;
76039;SDS011;64736;50.462;4.850;2023-01-19T04:21:49;12.98;;;6.50;;
76039;SDS011;64736;50.462;4.850;2023-01-19T04:24:16;14.32;;;7.28;;
76039;SDS011;64736;50.462;4.850;2023-01-19T04:26:42;11.45;;;6.47;;
76039;SDS011;64736;50.462;4.850;2023-01-19T04:29:08;14.10;;;5.78;;
76039;SDS011;64736;50.462;4.850;2023-01-19T04:31:34;16.35;;;7.88;;
76039;SDS011;64736;50.462;4.850;2023-01-19T04:34:01;12.20;;;6.15;;
76039;SDS011;64736;50.462;4.850;2023-01-19T04:36:27;13.60;;;5.50;;
76039;SDS011;64736;50.462;4.850;2023-01-19T04:38:53;8.35;;;4.68;;
76039;SDS011;64736;50.462;4.850;2023-01-19T04:41:19;10.57;;;4.50;;
76039;SDS011;64736;50.462;4.850;2023-01-19T04:43:45;8.70;;;4.03;;
76039;SDS011;64736;50.462;4.850;2023-01-19T04:46:12;7.03;;;4.18;;
76039;SDS011;64736;50.462;4.850;2023-01-19T04:48:38;3.88;;;2.80;;
76039;SDS011;64736;50.462;4.850;2023-01-19T04:51:04;9.35;;;5.35;;
76039;SDS011;64736;50.462;4.850;2023-01-19T04:53:30;12.75;;;5.93;;
76039;SDS011;64736;50.462;4.850;2023-01-19T04:55:56;12.48;;;5.28;;
76039;SDS011;64736;50.462;4.850;2023-01-19T04:58:23;11.90;;;5.50;;
76039;SDS011;64736;50.462;4.850;2023-01-19T05:00:49;14.23;;;5.72;;
76039;SDS011;64736;50.462;4.850;2023-01-19T05:03:16;9.70;;;5.20;;
76039;SDS011;64736;50.462;4.850;2023-01-19T05:05:44;13.98;;;5.40;;
76039;SDS011;64736;50.462;4.850;2023-01-19T05:08:11;18.40;;;7.30;;
76039;SDS011;64736;50.462;4.850;2023-01-19T05:10:37;15.65;;;7.68;;
76039;SDS011;64736;50.462;4.850;2023-01-19T05:13:02;10.38;;;5.30;;
76039;SDS011;64736;50.462;4.850;2023-01-19T05:15:29;12.40;;;6.78;;
76039;SDS011;64736;50.462;4.850;2023-01-19T05:17:55;9.80;;;5.07;;
76039;SDS011;64736;50.462;4.850;2023-01-19T05:20:22;12.52;;;5.28;;
76039;SDS011;64736;50.462;4.850;2023-01-19T05:22:49;13.00;;;6.78;;
76039;SDS011;64736;50.462;4.850;2023-01-19T05:25:16;14.73;;;6.95;;
76039;SDS011;64736;50.462;4.850;2023-01-19T05:27:42;15.30;;;7.75;;
76039;SDS011;64736;50.462;4.850;2023-01-19T05:30:09;18.73;;;7.80;;
76039;SDS011;64736;50.462;4.850;2023-01-19T05:32:35;10.05;;;5.50;;
76039;SDS011;64736;50.462;4.850;2023-01-19T05:35:01;16.30;;;7.38;;
76039;SDS011;64736;50.462;4.850;2023-01-19T05:37:27;14.48;;;7.38;;
76039;SDS011;64736;50.462;4.850;2023-01-19T05:39:53;13.00;;;6.03;;
76039;SDS011;64736;50.462;4.850;2023-01-19T05:42:19;19.02;;;9.02;;
76039;SDS011;64736;50.462;4.850;2023-01-19T05:44:45;15.93;;;7.65;;
76039;SDS011;64736;50.462;4.850;2023-01-19T05:47:10;17.02;;;8.57;;
76039;SDS011;64736;50.462;4.850;2023-01-19T05:49:36;17.73;;;8.05;;
76039;SDS011;64736;50.462;4.850;2023-01-19T05:52:02;16.17;;;8.43;;
76039;SDS011;64736;50.462;4.850;2023-01-19T05:54:28;13.77;;;6.88;;
76039;SDS011;64736;50.462;4.850;2023-01-19T05:56:53;16.58;;;7.97;;
76039;SDS011;64736;50.462;4.850;2023-01-19T05:59:19;19.45;;;8.02;;
76039;SDS011;64736;50.462;4.850;2023-01-19T06:01:49;18.27;;;7.97;;
76039;SDS011;64736;50.462;4.850;2023-01-19T06:04:15;12.65;;;6.40;;
76039;SDS011;64736;50.462;4.850;2023-01-19T06:06:41;14.68;;;7.88;;
76039;SDS011;64736;50.462;4.850;2023-01-19T06:09:07;11.73;;;6.30;;
76039;SDS011;64736;50.462;4.850;2023-01-19T06:11:32;6.60;;;3.75;;
76039;SDS011;64736;50.462;4.850;2023-01-19T06:13:58;14.45;;;5.90;;
76039;SDS011;64736;50.462;4.850;2023-01-19T06:16:24;13.55;;;7.00;;
76039;SDS011;64736;50.462;4.850;2023-01-19T06:18:49;16.10;;;6.63;;
76039;SDS011;64736;50.462;4.850;2023-01-19T06:21:15;15.75;;;7.13;;
76039;SDS011;64736;50.462;4.850;2023-01-19T06:23:41;15.80;;;6.93;;
76039;SDS011;64736;50.462;4.850;2023-01-19T06:26:07;13.55;;;7.07;;
76039;SDS011;64736;50.462;4.850;2023-01-19T06:28:32;19.67;;;9.35;;
76039;SDS011;64736;50.462;4.850;2023-01-19T06:30:58;13.70;;;9.10;;
76039;SDS011;64736;50.462;4.850;2023-01-19T06:33:24;20.00;;;8.50;;
76039;SDS011;64736;50.462;4.850;2023-01-19T06:35:51;21.83;;;9.88;;
76039;SDS011;64736;50.462;4.850;2023-01-19T06:38:17;10.52;;;6.15;;
76039;SDS011;64736;50.462;4.850;2023-01-19T06:40:44;15.65;;;6.93;;
76039;SDS011;64736;50.462;4.850;2023-01-19T06:43:10;19.40;;;8.77;;
76039;SDS011;64736;50.462;4.850;2023-01-19T06:45:37;16.55;;;7.80;;
76039;SDS011;64736;50.462;4.850;2023-01-19T06:48:04;17.42;;;8.52;;
76039;SDS011;64736;50.462;4.850;2023-01-19T06:50:30;21.23;;;10.30;;
76039;SDS011;64736;50.462;4.850;2023-01-19T06:52:56;7.60;;;4.28;;
76039;SDS011;64736;50.462;4.850;2023-01-19T06:55:21;11.23;;;6.82;;
76039;SDS011;64736;50.462;4.850;2023-01-19T06:57:47;16.30;;;7.88;;
76039;SDS011;64736;50.462;4.850;2023-01-19T07:00:13;16.80;;;7.07;;
76039;SDS011;64736;50.462;4.850;2023-01-19T07:02:39;17.98;;;8.18;;
76039;SDS011;64736;50.462;4.850;2023-01-19T07:10:07;14.63;;;6.35;;
76039;SDS011;64736;50.462;4.850;2023-01-19T07:12:36;14.73;;;7.15;;
76039;SDS011;64736;50.462;4.850;2023-01-19T07:15:02;20.15;;;8.40;;
76039;SDS011;64736;50.462;4.850;2023-01-19T07:17:29;16.85;;;8.38;;
76039;SDS011;64736;50.462;4.850;2023-01-19T07:19:54;18.60;;;6.70;;
76039;SDS011;64736;50.462;4.850;2023-01-19T07:22:20;15.77;;;8.15;;
76039;SDS011;64736;50.462;4.850;2023-01-19T07:24:46;16.63;;;7.57;;
76039;SDS011;64736;50.462;4.850;2023-01-19T07:27:11;20.45;;;9.45;;
76039;SDS011;64736;50.462;4.850;2023-01-19T07:29:38;18.20;;;8.27;;
76039;SDS011;64736;50.462;4.850;2023-01-19T07:32:04;14.20;;;5.93;;
76039;SDS011;64736;50.462;4.850;2023-01-19T07:34:30;18.65;;;8.48;;
76039;SDS011;64736;50.462;4.850;2023-01-19T07:36:56;12.27;;;6.28;;
76039;SDS011;64736;50.462;4.850;2023-01-19T07:39:21;16.98;;;8.45;;
76039;SDS011;64736;50.462;4.850;2023-01-19T07:41:47;16.63;;;6.93;;
76039;SDS011;64736;50.462;4.850;2023-01-19T07:44:13;20.23;;;8.38;;
76039;SDS011;64736;50.462;4.850;2023-01-19T07:46:39;19.45;;;9.55;;
76039;SDS011;64736;50.462;4.850;2023-01-19T07:49:05;19.25;;;8.00;;
76039;SDS011;64736;50.462;4.850;2023-01-19T07:51:31;18.55;;;8.93;;
76039;SDS011;64736;50.462;4.850;2023-01-19T07:53:56;17.80;;;8.38;;
76039;SDS011;64736;50.462;4.850;2023-01-19T07:56:23;17.13;;;7.35;;
76039;SDS011;64736;50.462;4.850;2023-01-19T07:58:50;16.13;;;8.70;;
76039;SDS011;64736;50.462;4.850;2023-01-19T08:01:16;14.98;;;7.32;;
76039;SDS011;64736;50.462;4.850;2023-01-19T08:03:42;20.05;;;9.23;;
76039;SDS011;64736;50.462;4.850;2023-01-19T08:06:22;17.15;;;8.60;;
76039;SDS011;64736;50.462;4.850;2023-01-19T08:08:51;15.45;;;7.75;;
76039;SDS011;64736;50.462;4.850;2023-01-19T08:11:17;16.95;;;7.90;;
76039;SDS011;64736;50.462;4.850;2023-01-19T08:13:43;18.42;;;8.88;;
76039;SDS011;64736;50.462;4.850;2023-01-19T08:16:08;17.13;;;8.57;;
76039;SDS011;64736;50.462;4.850;2023-01-19T08:18:34;17.67;;;8.77;;
76039;SDS011;64736;50.462;4.850;2023-01-19T08:21:00;14.43;;;6.97;;
76039;SDS011;64736;50.462;4.850;2023-01-19T08:23:26;12.77;;;6.70;;
76039;SDS011;64736;50.462;4.850;2023-01-19T08:25:52;12.45;;;5.70;;
76039;SDS011;64736;50.462;4.850;2023-01-19T08:28:18;15.18;;;6.00;;
76039;SDS011;64736;50.462;4.850;2023-01-19T08:30:44;16.73;;;8.00;;
76039;SDS011;64736;50.462;4.850;2023-01-19T08:33:18;15.77;;;9.00;;
76039;SDS011;64736;50.462;4.850;2023-01-19T08:35:49;17.35;;;7.13;;
76039;SDS011;64736;50.462;4.850;2023-01-19T08:38:16;16.77;;;7.95;;
76039;SDS011;64736;50.462;4.850;2023-01-19T08:40:42;15.07;;;7.47;;
76039;SDS011;64736;50.462;4.850;2023-01-19T08:43:09;11.05;;;5.40;;
76039;SDS011;64736;50.462;4.850;2023-01-19T08:45:37;16.45;;;7.88;;
76039;SDS011;64736;50.462;4.850;2023-01-19T08:48:13;5.65;;;2.85;;
76039;SDS011;64736;50.462;4.850;2023-01-19T08:50:40;17.33;;;7.90;;
76039;SDS011;64736;50.462;4.850;2023-01-19T08:53:06;17.40;;;9.00;;
76039;SDS011;64736;50.462;4.850;2023-01-19T08:55:35;17.30;;;7.47;;
76039;SDS011;64736;50.462;4.850;2023-01-19T08:58:01;17.30;;;9.20;;
76039;SDS011;64736;50.462;4.850;2023-01-19T09:00:28;18.67;;;8.90;;
76039;SDS011;64736;50.462;4.850;2023-01-19T09:02:58;20.05;;;10.05;;
76039;SDS011;64736;50.462;4.850;2023-01-19T09:05:32;19.13;;;8.73;;
76039;SDS011;64736;50.462;4.850;2023-01-19T09:08:03;20.98;;;10.45;;
76039;SDS011;64736;50.462;4.850;2023-01-19T09:10:34;22.83;;;10.45;;
76039;SDS011;64736;50.462;4.850;2023-01-19T09:13:05;17.73;;;10.57;;
76039;SDS011;64736;50.462;4.850;2023-01-19T09:15:35;21.23;;;9.98;;
76039;SDS011;64736;50.462;4.850;2023-01-19T09:18:04;19.15;;;10.90;;
76039;SDS011;64736;50.462;4.850;2023-01-19T09:22:59;14.57;;;7.35;;
76039;SDS011;64736;50.462;4.850;2023-01-19T09:25:25;11.57;;;5.57;;
76039;SDS011;64736;50.462;4.850;2023-01-19T09:27:51;10.98;;;6.13;;
76039;SDS011;64736;50.462;4.850;2023-01-19T09:30:17;10.80;;;5.65;;
76039;SDS011;64736;50.462;4.850;2023-01-19T09:32:44;10.85;;;6.45;;
76039;SDS011;64736;50.462;4.850;2023-01-19T09:35:10;12.20;;;5.75;;
76039;SDS011;64736;50.462;4.850;2023-01-19T09:37:36;15.70;;;7.03;;
76039;SDS011;64736;50.462;4.850;2023-01-19T09:40:05;14.00;;;6.35;;
76039;SDS011;64736;50.462;4.850;2023-01-19T09:43:11;11.20;;;4.95;;
76039;SDS011;64736;50.462;4.850;2023-01-19T09:45:46;8.73;;;3.90;;
76039;SDS011;64736;50.462;4.850;2023-01-19T09:51:09;8.13;;;3.65;;
76039;SDS011;64736;50.462;4.850;2023-01-19T09:56:27;10.90;;;6.07;;
76039;SDS011;64736;50.462;4.850;2023-01-19T09:58:54;14.10;;;6.38;;
76039;SDS011;64736;50.462;4.850;2023-01-19T10:01:35;12.05;;;5.78;;
76039;SDS011;64736;50.462;4.850;2023-01-19T10:06:58;14.13;;;6.97;;
76039;SDS011;64736;50.462;4.850;2023-01-19T10:09:46;10.02;;;5.13;;
76039;SDS011;64736;50.462;4.850;2023-01-19T10:12:20;12.10;;;5.50;;
76039;SDS011;64736;50.462;4.850;2023-01-19T10:17:49;12.15;;;5.53;;
76039;SDS011;64736;50.462;4.850;2023-01-19T10:20:52;10.25;;;5.03;;
76039;SDS011;64736;50.462;4.850;2023-01-19T10:26:14;11.55;;;6.13;;
76039;SDS011;64736;50.462;4.850;2023-01-19T10:28:42;8.93;;;4.72;;
76039;SDS011;64736;50.462;4.850;2023-01-19T10:31:11;14.15;;;6.72;;
76039;SDS011;64736;50.462;4.850;2023-01-19T10:33:38;14.85;;;7.00;;
76039;SDS011;64736;50.462;4.850;2023-01-19T10:36:05;13.85;;;5.80;;
76039;SDS011;64736;50.462;4.850;2023-01-19T10:38:41;13.60;;;6.03;;
76039;SDS011;64736;50.462;4.850;2023-01-19T10:41:10;12.82;;;5.40;;
76039;SDS011;64736;50.462;4.850;2023-01-19T10:44:00;12.23;;;5.82;;
76039;SDS011;64736;50.462;4.850;2023-01-19T10:48:59;12.40;;;5.57;;
76039;SDS011;64736;50.462;4.850;2023-01-19T10:51:25;11.68;;;4.68;;
76039;SDS011;64736;50.462;4.850;2023-01-19T10:54:01;10.20;;;5.90;;
76039;SDS011;64736;50.462;4.850;2023-01-19T10:56:34;10.30;;;4.35;;
76039;SDS011;64736;50.462;4.850;2023-01-19T10:59:03;13.18;;;6.75;;
76039;SDS011;64736;50.462;4.850;2023-01-19T11:01:30;9.60;;;6.00;;
76039;SDS011;64736;50.462;4.850;2023-01-19T11:04:18;12.93;;;6.35;;
76039;SDS011;64736;50.462;4.850;2023-01-19T11:06:57;10.70;;;5.70;;
76039;SDS011;64736;50.462;4.850;2023-01-19T11:09:45;10.48;;;5.30;;
76039;SDS011;64736;50.462;4.850;2023-01-19T11:12:19;9.45;;;6.28;;
76039;SDS011;64736;50.462;4.850;2023-01-19T11:14:48;11.45;;;5.90;;
76039;SDS011;64736;50.462;4.850;2023-01-19T11:17:19;12.73;;;6.13;;
76039;SDS011;64736;50.462;4.850;2023-01-19T11:19:51;14.30;;;7.25;;
76039;SDS011;64736;50.462;4.850;2023-01-19T11:22:25;11.13;;;6.65;;
76039;SDS011;64736;50.462;4.850;2023-01-19T11:24:56;13.80;;;6.75;;
76039;SDS011;64736;50.462;4.850;2023-01-19T11:27:26;13.13;;;6.40;;
76039;SDS011;64736;50.462;4.850;2023-01-19T11:30:01;11.30;;;5.72;;
76039;SDS011;64736;50.462;4.850;2023-01-19T11:32:40;10.90;;;5.88;;
76039;SDS011;64736;50.462;4.850;2023-01-19T11:40:54;12.05;;;5.65;;
76039;SDS011;64736;50.462;4.850;2023-01-19T11:43:23;8.27;;;3.75;;
76039;SDS011;64736;50.462;4.850;2023-01-19T11:45:53;8.88;;;3.78;;
76039;SDS011;64736;50.462;4.850;2023-01-19T11:48:28;8.40;;;4.10;;
76039;SDS011;64736;50.462;4.850;2023-01-19T11:51:02;7.40;;;3.78;;
76039;SDS011;64736;50.462;4.850;2023-01-19T11:53:33;8.05;;;3.95;;
76039;SDS011;64736;50.462;4.850;2023-01-19T11:58:36;7.10;;;3.63;;
76039;SDS011;64736;50.462;4.850;2023-01-19T12:01:15;5.22;;;2.80;;
76039;SDS011;64736;50.462;4.850;2023-01-19T12:03:47;6.20;;;3.40;;
76039;SDS011;64736;50.462;4.850;2023-01-19T12:06:34;10.15;;;4.47;;
76039;SDS011;64736;50.462;4.850;2023-01-19T12:09:18;8.02;;;3.60;;
76039;SDS011;64736;50.462;4.850;2023-01-19T12:12:22;6.68;;;3.33;;
76039;SDS011;64736;50.462;4.850;2023-01-19T12:14:55;10.57;;;3.92;;
76039;SDS011;64736;50.462;4.850;2023-01-19T12:17:29;7.50;;;3.70;;
76039;SDS011;64736;50.462;4.850;2023-01-19T12:20:03;7.72;;;3.92;;
76039;SDS011;64736;50.462;4.850;2023-01-19T12:22:30;7.03;;;4.25;;
76039;SDS011;64736;50.462;4.850;2023-01-19T12:25:09;10.13;;;4.57;;
76039;SDS011;64736;50.462;4.850;2023-01-19T12:27:49;11.38;;;5.10;;
76039;SDS011;64736;50.462;4.850;2023-01-19T12:30:19;8.77;;;4.30;;
76039;SDS011;64736;50.462;4.850;2023-01-19T12:32:47;9.32;;;4.85;;
76039;SDS011;64736;50.462;4.850;2023-01-19T12:43:42;11.35;;;5.25;;
76039;SDS011;64736;50.462;4.850;2023-01-19T12:46:18;9.23;;;5.43;;
76039;SDS011;64736;50.462;4.850;2023-01-19T12:48:45;9.73;;;4.88;;
76039;SDS011;64736;50.462;4.850;2023-01-19T12:51:24;9.95;;;5.35;;
76039;SDS011;64736;50.462;4.850;2023-01-19T12:53:52;10.63;;;5.05;;
76039;SDS011;64736;50.462;4.850;2023-01-19T12:56:34;11.05;;;4.07;;
76039;SDS011;64736;50.462;4.850;2023-01-19T12:59:03;8.90;;;4.07;;
76039;SDS011;64736;50.462;4.850;2023-01-19T13:01:30;9.35;;;5.72;;
76039;SDS011;64736;50.462;4.850;2023-01-19T13:03:58;9.50;;;5.43;;
76039;SDS011;64736;50.462;4.850;2023-01-19T13:09:57;8.65;;;4.28;;
76039;SDS011;64736;50.462;4.850;2023-01-19T13:14:44;9.65;;;4.45;;
76039;SDS011;64736;50.462;4.850;2023-01-19T13:17:30;9.57;;;4.20;;
76039;SDS011;64736;50.462;4.850;2023-01-19T13:20:03;11.20;;;3.90;;
76039;SDS011;64736;50.462;4.850;2023-01-19T13:22:53;9.85;;;5.35;;
76039;SDS011;64736;50.462;4.850;2023-01-19T13:25:45;8.13;;;4.20;;
76039;SDS011;64736;50.462;4.850;2023-01-19T13:28:14;8.90;;;4.50;;
76039;SDS011;64736;50.462;4.850;2023-01-19T13:30:50;10.77;;;4.68;;
76039;SDS011;64736;50.462;4.850;2023-01-19T13:33:21;9.77;;;4.63;;
76039;SDS011;64736;50.462;4.850;2023-01-19T13:35:51;9.07;;;4.97;;
76039;SDS011;64736;50.462;4.850;2023-01-19T13:38:23;8.73;;;4.07;;
76039;SDS011;64736;50.462;4.850;2023-01-19T13:40:51;7.72;;;3.75;;
76039;SDS011;64736;50.462;4.850;2023-01-19T13:43:29;8.63;;;3.95;;
76039;SDS011;64736;50.462;4.850;2023-01-19T13:46:01;9.18;;;4.85;;
76039;SDS011;64736;50.462;4.850;2023-01-19T13:48:28;9.15;;;4.70;;
76039;SDS011;64736;50.462;4.850;2023-01-19T13:50:56;7.70;;;3.88;;
76039;SDS011;64736;50.462;4.850;2023-01-19T13:53:24;9.07;;;4.17;;
76039;SDS011;64736;50.462;4.850;2023-01-19T13:58:41;7.50;;;4.05;;
76039;SDS011;64736;50.462;4.850;2023-01-19T14:01:18;10.40;;;5.40;;
76039;SDS011;64736;50.462;4.850;2023-01-19T14:03:45;8.10;;;4.05;;
76039;SDS011;64736;50.462;4.850;2023-01-19T14:06:36;9.70;;;4.25;;
76039;SDS011;64736;50.462;4.850;2023-01-19T14:09:15;10.35;;;4.85;;
76039;SDS011;64736;50.462;4.850;2023-01-19T14:11:46;10.60;;;4.50;;
76039;SDS011;64736;50.462;4.850;2023-01-19T14:14:40;9.68;;;5.03;;
76039;SDS011;64736;50.462;4.850;2023-01-19T14:20:02;10.52;;;5.78;;
76039;SDS011;64736;50.462;4.850;2023-01-19T14:22:36;11.50;;;5.57;;
76039;SDS011;64736;50.462;4.850;2023-01-19T14:31:01;10.45;;;4.07;;
76039;SDS011;64736;50.462;4.850;2023-01-19T14:33:42;9.43;;;5.13;;
76039;SDS011;64736;50.462;4.850;2023-01-19T14:36:17;9.50;;;4.72;;
76039;SDS011;64736;50.462;4.850;2023-01-19T14:38:53;9.93;;;4.85;;
76039;SDS011;64736;50.462;4.850;2023-01-19T14:41:26;9.88;;;4.70;;
76039;SDS011;64736;50.462;4.850;2023-01-19T14:44:08;11.77;;;5.82;;
76039;SDS011;64736;50.462;4.850;2023-01-19T14:46:35;10.02;;;4.47;;
76039;SDS011;64736;50.462;4.850;2023-01-19T14:49:03;11.45;;;5.28;;
76039;SDS011;64736;50.462;4.850;2023-01-19T14:51:30;13.48;;;5.50;;
76039;SDS011;64736;50.462;4.850;2023-01-19T14:53:57;9.77;;;5.57;;
76039;SDS011;64736;50.462;4.850;2023-01-19T14:56:28;8.73;;;4.68;;
76039;SDS011;64736;50.462;4.850;2023-01-19T14:58:56;9.50;;;4.32;;
76039;SDS011;64736;50.462;4.850;2023-01-19T15:01:22;8.25;;;4.35;;
76039;SDS011;64736;50.462;4.850;2023-01-19T15:03:53;11.40;;;4.70;;
76039;SDS011;64736;50.462;4.850;2023-01-19T15:06:23;8.10;;;5.00;;
76039;SDS011;64736;50.462;4.850;2023-01-19T15:08:50;9.93;;;4.53;;
76039;SDS011;64736;50.462;4.850;2023-01-19T15:13:52;12.02;;;6.30;;
76039;SDS011;64736;50.462;4.850;2023-01-19T15:16:19;9.35;;;4.30;;
76039;SDS011;64736;50.462;4.850;2023-01-19T15:18:46;9.65;;;5.15;;
76039;SDS011;64736;50.462;4.850;2023-01-19T15:21:15;11.82;;;5.20;;
76039;SDS011;64736;50.462;4.850;2023-01-19T15:23:52;10.25;;;5.43;;
76039;SDS011;64736;50.462;4.850;2023-01-19T15:26:19;10.55;;;5.05;;
76039;SDS011;64736;50.462;4.850;2023-01-19T15:28:47;9.20;;;4.65;;
76039;SDS011;64736;50.462;4.850;2023-01-19T15:31:15;8.38;;;4.68;;
76039;SDS011;64736;50.462;4.850;2023-01-19T15:33:42;15.65;;;8.93;;
76039;SDS011;64736;50.462;4.850;2023-01-19T15:36:12;16.23;;;8.13;;
76039;SDS011;64736;50.462;4.850;2023-01-19T15:38:39;11.55;;;5.85;;
76039;SDS011;64736;50.462;4.850;2023-01-19T15:41:10;14.00;;;6.47;;
76039;SDS011;64736;50.462;4.850;2023-01-19T15:43:50;17.20;;;8.50;;
76039;SDS011;64736;50.462;4.850;2023-01-19T15:46:18;12.88;;;6.65;;
76039;SDS011;64736;50.462;4.850;2023-01-19T15:48:48;13.05;;;5.85;;
76039;SDS011;64736;50.462;4.850;2023-01-19T15:51:18;12.63;;;5.13;;
76039;SDS011;64736;50.462;4.850;2023-01-19T15:53:45;10.48;;;5.63;;
76039;SDS011;64736;50.462;4.850;2023-01-19T15:56:15;10.73;;;5.85;;
76039;SDS011;64736;50.462;4.850;2023-01-19T15:58:43;12.30;;;5.75;;
76039;SDS011;64736;50.462;4.850;2023-01-19T16:01:13;11.25;;;6.82;;
76039;SDS011;64736;50.462;4.850;2023-01-19T16:03:40;11.93;;;5.90;;
76039;SDS011;64736;50.462;4.850;2023-01-19T16:06:06;12.50;;;6.80;;
76039;SDS011;64736;50.462;4.850;2023-01-19T16:08:33;12.75;;;6.10;;
76039;SDS011;64736;50.462;4.850;2023-01-19T16:11:06;12.70;;;5.30;;